sensor_id;sensor_type;location;lat;lon;timestamp;pressure;altitude;pressure_sealevel;temperature;humidity
20019;BME280;10170;42.502;26.526;2022-10-16T00:01:13;100456.16;;;10.67;100.00
20019;BME280;10170;42.502;26.526;2022-10-16T00:03:41;100464.31;;;10.66;100.00
20019;BME280;10170;42.502;26.526;2022-10-16T00:06:09;100462.97;;;10.55;100.00
20019;BME280;10170;42.502;26.526;2022-10-16T00:08:37;100465.63;;;10.55;100.00
20019;BME280;10170;42.502;26.526;2022-10-16T00:11:06;100473.97;;;10.52;100.00
20019;BME280;10170;42.502;26.526;2022-10-16T00:13:35;100460.13;;;10.42;100.00
20019;BME280;10170;42.502;26.526;2022-10-16T00:16:02;100468.28;;;10.40;100.00
20019;BME280;10170;42.502;26.526;2022-10-16T00:18:30;100445.47;;;10.31;100.00
20019;BME280;10170;42.502;26.526;2022-10-16T00:21:12;100465.81;;;10.53;100.00
20019;BME280;10170;42.502;26.526;2022-10-16T00:23:39;100461.78;;;10.57;100.00
20019;BME280;10170;42.502;26.526;2022-10-16T00:26:08;100450.13;;;10.58;100.00
20019;BME280;10170;42.502;26.526;2022-10-16T00:28:36;100445.44;;;10.60;100.00
20019;BME280;10170;42.502;26.526;2022-10-16T00:31:07;100456.16;;;10.67;100.00
20019;BME280;10170;42.502;26.526;2022-10-16T00:33:35;100453.69;;;10.66;100.00
20019;BME280;10170;42.502;26.526;2022-10-16T00:36:03;100465.16;;;10.66;100.00
20019;BME280;10170;42.502;26.526;2022-10-16T00:38:31;100446.09;;;10.63;100.00
20019;BME280;10170;42.502;26.526;2022-10-16T00:40:58;100466.34;;;10.63;100.00
20019;BME280;10170;42.502;26.526;2022-10-16T00:46:10;100461.31;;;10.54;100.00
20019;BME280;10170;42.502;26.526;2022-10-16T00:48:37;100450.06;;;10.37;100.00
20019;BME280;10170;42.502;26.526;2022-10-16T00:51:05;100449.22;;;10.37;100.00
20019;BME280;10170;42.502;26.526;2022-10-16T00:53:33;100461.03;;;10.34;100.00
20019;BME280;10170;42.502;26.526;2022-10-16T00:56:01;100467.66;;;10.38;100.00
20019;BME280;10170;42.502;26.526;2022-10-16T00:58:28;100471.88;;;10.33;100.00
20019;BME280;10170;42.502;26.526;2022-10-16T01:00:55;100458.03;;;10.23;100.00
20019;BME280;10170;42.502;26.526;2022-10-16T01:03:33;100469.41;;;10.31;100.00
20019;BME280;10170;42.502;26.526;2022-10-16T01:12:00;100463.81;;;10.41;100.00
20019;BME280;10170;42.502;26.526;2022-10-16T01:17:22;100469.31;;;10.25;100.00
20019;BME280;10170;42.502;26.526;2022-10-16T01:20:15;100478.47;;;10.37;100.00
20019;BME280;10170;42.502;26.526;2022-10-16T01:32:00;100476.16;;;10.63;100.00
20019;BME280;10170;42.502;26.526;2022-10-16T01:34:33;100486.44;;;10.66;100.00
20019;BME280;10170;42.502;26.526;2022-10-16T01:37:20;100486.69;;;10.71;100.00
20019;BME280;10170;42.502;26.526;2022-10-16T01:39:48;100488.91;;;10.68;100.00
20019;BME280;10170;42.502;26.526;2022-10-16T01:42:21;100461.03;;;10.63;100.00
20019;BME280;10170;42.502;26.526;2022-10-16T01:44:51;100484.00;;;10.86;100.00
20019;BME280;10170;42.502;26.526;2022-10-16T01:47:22;100482.63;;;10.90;100.00
20019;BME280;10170;42.502;26.526;2022-10-16T01:49:51;100491.88;;;10.94;100.00
20019;BME280;10170;42.502;26.526;2022-10-16T01:52:21;100487.09;;;11.04;100.00
20019;BME280;10170;42.502;26.526;2022-10-16T01:54:52;100479.91;;;11.04;100.00
20019;BME280;10170;42.502;26.526;2022-10-16T01:57:22;100490.19;;;11.07;100.00
20019;BME280;10170;42.502;26.526;2022-10-16T01:59:54;100492.53;;;11.17;100.00
20019;BME280;10170;42.502;26.526;2022-10-16T02:02:22;100497.31;;;11.21;100.00
20019;BME280;10170;42.502;26.526;2022-10-16T02:05:02;100495.19;;;11.17;100.00
20019;BME280;10170;42.502;26.526;2022-10-16T02:07:31;100493.41;;;11.03;100.00
20019;BME280;10170;42.502;26.526;2022-10-16T02:09:59;100490.09;;;11.01;100.00
20019;BME280;10170;42.502;26.526;2022-10-16T02:12:32;100500.44;;;10.89;100.00
20019;BME280;10170;42.502;26.526;2022-10-16T02:15:00;100505.69;;;10.83;100.00
20019;BME280;10170;42.502;26.526;2022-10-16T02:17:27;100494.16;;;10.61;100.00
20019;BME280;10170;42.502;26.526;2022-10-16T02:19:56;100483.72;;;10.45;100.00
20019;BME280;10170;42.502;26.526;2022-10-16T02:22:28;100508.44;;;10.45;100.00
20019;BME280;10170;42.502;26.526;2022-10-16T02:25:17;100516.69;;;10.50;100.00
20019;BME280;10170;42.502;26.526;2022-10-16T02:28:08;100512.56;;;10.63;100.00
20019;BME280;10170;42.502;26.526;2022-10-16T02:30:43;100500.84;;;10.42;100.00
20019;BME280;10170;42.502;26.526;2022-10-16T02:33:12;100515.78;;;10.43;100.00
20019;BME280;10170;42.502;26.526;2022-10-16T02:35:41;100507.53;;;10.38;100.00
20019;BME280;10170;42.502;26.526;2022-10-16T02:38:08;100521.38;;;10.48;100.00
20019;BME280;10170;42.502;26.526;2022-10-16T02:40:36;100524.13;;;10.40;100.00
20019;BME280;10170;42.502;26.526;2022-10-16T02:43:04;100531.72;;;10.43;100.00
20019;BME280;10170;42.502;26.526;2022-10-16T02:45:31;100530.09;;;10.42;100.00
20019;BME280;10170;42.502;26.526;2022-10-16T02:47:58;100532.47;;;10.52;100.00
20019;BME280;10170;42.502;26.526;2022-10-16T02:50:25;100533.75;;;10.56;100.00
20019;BME280;10170;42.502;26.526;2022-10-16T02:52:51;100536.41;;;10.56;100.00
20019;BME280;10170;42.502;26.526;2022-10-16T02:55:18;100534.50;;;10.50;100.00
20019;BME280;10170;42.502;26.526;2022-10-16T02:57:45;100537.50;;;10.47;100.00
20019;BME280;10170;42.502;26.526;2022-10-16T03:00:14;100549.53;;;10.43;100.00
20019;BME280;10170;42.502;26.526;2022-10-16T03:02:42;100536.78;;;10.38;100.00
20019;BME280;10170;42.502;26.526;2022-10-16T03:05:09;100547.78;;;10.35;100.00
20019;BME280;10170;42.502;26.526;2022-10-16T03:07:37;100543.44;;;10.34;100.00
20019;BME280;10170;42.502;26.526;2022-10-16T03:10:04;100549.78;;;10.33;100.00
20019;BME280;10170;42.502;26.526;2022-10-16T03:12:31;100548.16;;;10.32;100.00
20019;BME280;10170;42.502;26.526;2022-10-16T03:14:58;100555.94;;;10.34;100.00
20019;BME280;10170;42.502;26.526;2022-10-16T03:17:25;100532.72;;;10.13;100.00
20019;BME280;10170;42.502;26.526;2022-10-16T03:19:52;100566.38;;;10.35;100.00
20019;BME280;10170;42.502;26.526;2022-10-16T03:22:19;100560.16;;;10.28;100.00
20019;BME280;10170;42.502;26.526;2022-10-16T03:24:46;100570.63;;;10.07;100.00
20019;BME280;10170;42.502;26.526;2022-10-16T03:27:12;100575.78;;;10.09;100.00
20019;BME280;10170;42.502;26.526;2022-10-16T03:29:39;100577.25;;;10.11;100.00
20019;BME280;10170;42.502;26.526;2022-10-16T03:32:06;100579.56;;;10.14;100.00
20019;BME280;10170;42.502;26.526;2022-10-16T03:34:33;100576.06;;;10.14;100.00
20019;BME280;10170;42.502;26.526;2022-10-16T03:37:00;100562.50;;;10.09;100.00
20019;BME280;10170;42.502;26.526;2022-10-16T03:39:26;100573.41;;;10.14;100.00
20019;BME280;10170;42.502;26.526;2022-10-16T03:41:53;100579.38;;;10.16;100.00
20019;BME280;10170;42.502;26.526;2022-10-16T03:44:20;100561.16;;;10.05;100.00
20019;BME280;10170;42.502;26.526;2022-10-16T03:46:47;100574.03;;;9.93;100.00
20019;BME280;10170;42.502;26.526;2022-10-16T03:49:14;100576.69;;;9.93;100.00
20019;BME280;10170;42.502;26.526;2022-10-16T03:51:41;100577.34;;;9.95;100.00
20019;BME280;10170;42.502;26.526;2022-10-16T03:54:09;100558.56;;;9.82;100.00
20019;BME280;10170;42.502;26.526;2022-10-16T03:56:36;100571.75;;;9.90;100.00
20019;BME280;10170;42.502;26.526;2022-10-16T03:59:03;100571.94;;;9.89;100.00
20019;BME280;10170;42.502;26.526;2022-10-16T04:01:30;100569.97;;;9.83;100.00
20019;BME280;10170;42.502;26.526;2022-10-16T04:03:56;100578.50;;;9.78;100.00
20019;BME280;10170;42.502;26.526;2022-10-16T04:06:23;100576.34;;;9.74;100.00
20019;BME280;10170;42.502;26.526;2022-10-16T04:08:50;100559.31;;;9.68;100.00
20019;BME280;10170;42.502;26.526;2022-10-16T04:11:17;100583.16;;;9.76;100.00
20019;BME280;10170;42.502;26.526;2022-10-16T04:13:43;100583.84;;;9.70;100.00
20019;BME280;10170;42.502;26.526;2022-10-16T04:16:10;100580.72;;;9.67;100.00
20019;BME280;10170;42.502;26.526;2022-10-16T04:18:37;100577.91;;;9.68;100.00
20019;BME280;10170;42.502;26.526;2022-10-16T04:21:05;100576.06;;;9.69;100.00
20019;BME280;10170;42.502;26.526;2022-10-16T04:23:32;100575.97;;;9.62;100.00
20019;BME280;10170;42.502;26.526;2022-10-16T04:26:00;100574.91;;;9.71;100.00
20019;BME280;10170;42.502;26.526;2022-10-16T04:28:27;100576.06;;;9.69;100.00
20019;BME280;10170;42.502;26.526;2022-10-16T04:30:55;100584.44;;;9.57;100.00
20019;BME280;10170;42.502;26.526;2022-10-16T04:33:21;100582.97;;;9.55;100.00
20019;BME280;10170;42.502;26.526;2022-10-16T04:35:48;100585.38;;;9.42;100.00
20019;BME280;10170;42.502;26.526;2022-10-16T04:38:15;100591.09;;;9.31;100.00
20019;BME280;10170;42.502;26.526;2022-10-16T04:40:42;100553.44;;;8.97;100.00
20019;BME280;10170;42.502;26.526;2022-10-16T04:43:09;100595.91;;;9.27;100.00
20019;BME280;10170;42.502;26.526;2022-10-16T04:45:37;100600.81;;;9.16;100.00
20019;BME280;10170;42.502;26.526;2022-10-16T04:48:03;100604.50;;;8.99;100.00
20019;BME280;10170;42.502;26.526;2022-10-16T04:50:30;100604.00;;;9.03;100.00
20019;BME280;10170;42.502;26.526;2022-10-16T04:52:57;100593.84;;;8.68;100.00
20019;BME280;10170;42.502;26.526;2022-10-16T04:55:24;100599.78;;;8.78;100.00
20019;BME280;10170;42.502;26.526;2022-10-16T04:57:51;100603.06;;;8.88;100.00
20019;BME280;10170;42.502;26.526;2022-10-16T05:00:18;100609.69;;;8.92;100.00
20019;BME280;10170;42.502;26.526;2022-10-16T05:02:44;100603.91;;;8.81;100.00
20019;BME280;10170;42.502;26.526;2022-10-16T05:05:11;100612.22;;;8.78;100.00
20019;BME280;10170;42.502;26.526;2022-10-16T05:07:38;100614.81;;;8.86;100.00
20019;BME280;10170;42.502;26.526;2022-10-16T05:10:05;100611.50;;;8.92;100.00
20019;BME280;10170;42.502;26.526;2022-10-16T05:12:32;100618.44;;;8.93;100.00
20019;BME280;10170;42.502;26.526;2022-10-16T05:14:59;100609.81;;;8.99;100.00
20019;BME280;10170;42.502;26.526;2022-10-16T05:17:26;100616.00;;;9.22;100.00
20019;BME280;10170;42.502;26.526;2022-10-16T05:19:53;100618.38;;;9.47;100.00
20019;BME280;10170;42.502;26.526;2022-10-16T05:22:20;100616.56;;;9.71;100.00
20019;BME280;10170;42.502;26.526;2022-10-16T05:24:47;100626.56;;;9.91;100.00
20019;BME280;10170;42.502;26.526;2022-10-16T05:27:14;100634.34;;;10.15;100.00
20019;BME280;10170;42.502;26.526;2022-10-16T05:29:46;100634.28;;;10.23;100.00
20019;BME280;10170;42.502;26.526;2022-10-16T05:32:14;100626.94;;;10.25;100.00
20019;BME280;10170;42.502;26.526;2022-10-16T05:34:42;100633.66;;;10.21;100.00
20019;BME280;10170;42.502;26.526;2022-10-16T05:37:09;100636.16;;;10.37;100.00
20019;BME280;10170;42.502;26.526;2022-10-16T05:39:36;100647.78;;;10.36;100.00
20019;BME280;10170;42.502;26.526;2022-10-16T05:42:05;100638.34;;;10.34;100.00
20019;BME280;10170;42.502;26.526;2022-10-16T05:44:32;100633.38;;;10.83;100.00
20019;BME280;10170;42.502;26.526;2022-10-16T05:46:59;100642.69;;;11.22;100.00
20019;BME280;10170;42.502;26.526;2022-10-16T05:49:26;100644.81;;;11.27;100.00
20019;BME280;10170;42.502;26.526;2022-10-16T05:51:53;100648.53;;;11.61;100.00
20019;BME280;10170;42.502;26.526;2022-10-16T05:54:20;100644.19;;;12.17;100.00
20019;BME280;10170;42.502;26.526;2022-10-16T05:56:47;100640.88;;;13.26;100.00
20019;BME280;10170;42.502;26.526;2022-10-16T05:59:14;100642.56;;;13.46;100.00
20019;BME280;10170;42.502;26.526;2022-10-16T06:01:40;100650.28;;;13.75;100.00
20019;BME280;10170;42.502;26.526;2022-10-16T06:04:08;100657.38;;;14.22;100.00
20019;BME280;10170;42.502;26.526;2022-10-16T06:06:40;100643.38;;;14.79;100.00
20019;BME280;10170;42.502;26.526;2022-10-16T06:09:07;100664.13;;;15.03;100.00
20019;BME280;10170;42.502;26.526;2022-10-16T06:11:33;100656.03;;;15.80;100.00
20019;BME280;10170;42.502;26.526;2022-10-16T06:14:01;100656.22;;;16.16;100.00
20019;BME280;10170;42.502;26.526;2022-10-16T06:16:29;100666.94;;;15.85;100.00
20019;BME280;10170;42.502;26.526;2022-10-16T06:18:56;100655.25;;;16.35;100.00
20019;BME280;10170;42.502;26.526;2022-10-16T06:21:24;100661.22;;;16.06;99.59
20019;BME280;10170;42.502;26.526;2022-10-16T06:23:52;100661.84;;;16.89;99.77
20019;BME280;10170;42.502;26.526;2022-10-16T06:26:21;100657.38;;;17.01;90.10
20019;BME280;10170;42.502;26.526;2022-10-16T06:28:49;100670.16;;;17.89;86.01
20019;BME280;10170;42.502;26.526;2022-10-16T06:31:17;100673.31;;;17.86;80.83
20019;BME280;10170;42.502;26.526;2022-10-16T06:33:44;100676.69;;;16.91;90.69
20019;BME280;10170;42.502;26.526;2022-10-16T06:36:14;100676.84;;;17.32;84.03
20019;BME280;10170;42.502;26.526;2022-10-16T06:38:42;100684.28;;;16.76;87.16
20019;BME280;10170;42.502;26.526;2022-10-16T06:41:14;100688.81;;;16.75;88.09
20019;BME280;10170;42.502;26.526;2022-10-16T06:43:41;100686.44;;;16.85;85.92
20019;BME280;10170;42.502;26.526;2022-10-16T06:46:09;100674.47;;;16.63;84.65
20019;BME280;10170;42.502;26.526;2022-10-16T06:48:37;100671.25;;;17.16;80.36
20019;BME280;10170;42.502;26.526;2022-10-16T06:51:14;100679.69;;;17.19;80.55
20019;BME280;10170;42.502;26.526;2022-10-16T06:53:52;100689.75;;;17.06;82.34
20019;BME280;10170;42.502;26.526;2022-10-16T06:56:35;100690.44;;;17.37;80.70
20019;BME280;10170;42.502;26.526;2022-10-16T06:59:02;100695.94;;;16.88;83.11
20019;BME280;10170;42.502;26.526;2022-10-16T07:01:29;100694.88;;;16.89;75.61
20019;BME280;10170;42.502;26.526;2022-10-16T07:03:56;100683.81;;;17.40;69.75
20019;BME280;10170;42.502;26.526;2022-10-16T07:06:25;100574.06;;;17.01;65.81
20019;BME280;10170;42.502;26.526;2022-10-16T07:08:52;100695.94;;;17.67;63.83
20019;BME280;10170;42.502;26.526;2022-10-16T07:11:22;100698.28;;;17.75;63.69
20019;BME280;10170;42.502;26.526;2022-10-16T07:13:50;100695.53;;;17.81;63.71
20019;BME280;10170;42.502;26.526;2022-10-16T07:16:27;100687.09;;;17.78;61.86
20019;BME280;10170;42.502;26.526;2022-10-16T07:18:55;100688.91;;;17.30;62.56
20019;BME280;10170;42.502;26.526;2022-10-16T07:21:32;100700.59;;;17.35;62.17
20019;BME280;10170;42.502;26.526;2022-10-16T07:24:04;100705.94;;;17.60;62.25
20019;BME280;10170;42.502;26.526;2022-10-16T07:26:34;100707.72;;;17.66;61.48
20019;BME280;10170;42.502;26.526;2022-10-16T07:29:01;100696.00;;;17.60;61.09
20019;BME280;10170;42.502;26.526;2022-10-16T07:31:28;100702.75;;;17.99;59.94
20019;BME280;10170;42.502;26.526;2022-10-16T07:33:58;100697.50;;;17.56;60.73
20019;BME280;10170;42.502;26.526;2022-10-16T07:36:25;100688.63;;;17.85;60.26
20019;BME280;10170;42.502;26.526;2022-10-16T07:38:52;100699.09;;;17.94;59.64
20019;BME280;10170;42.502;26.526;2022-10-16T07:41:25;100688.66;;;17.67;60.46
20019;BME280;10170;42.502;26.526;2022-10-16T07:43:53;100690.03;;;18.18;59.13
20019;BME280;10170;42.502;26.526;2022-10-16T07:46:22;100693.69;;;18.53;58.45
20019;BME280;10170;42.502;26.526;2022-10-16T07:48:49;100692.41;;;18.26;58.58
20019;BME280;10170;42.502;26.526;2022-10-16T07:51:21;100696.16;;;18.66;58.17
20019;BME280;10170;42.502;26.526;2022-10-16T07:53:49;100694.28;;;18.66;58.83
20019;BME280;10170;42.502;26.526;2022-10-16T07:56:18;100693.72;;;18.35;59.72
20019;BME280;10170;42.502;26.526;2022-10-16T07:58:46;100697.88;;;18.49;60.35
20019;BME280;10170;42.502;26.526;2022-10-16T08:01:15;100697.78;;;18.26;59.48
20019;BME280;10170;42.502;26.526;2022-10-16T08:03:43;100693.34;;;18.72;60.02
20019;BME280;10170;42.502;26.526;2022-10-16T08:06:10;100639.69;;;18.07;59.14
20019;BME280;10170;42.502;26.526;2022-10-16T08:08:37;100694.97;;;18.21;60.61
20019;BME280;10170;42.502;26.526;2022-10-16T08:11:04;100693.81;;;18.81;60.18
20019;BME280;10170;42.502;26.526;2022-10-16T08:13:32;100695.56;;;18.99;59.26
20019;BME280;10170;42.502;26.526;2022-10-16T08:15:59;100698.03;;;18.88;58.77
20019;BME280;10170;42.502;26.526;2022-10-16T08:18:26;100690.81;;;19.63;58.20
20019;BME280;10170;42.502;26.526;2022-10-16T08:20:57;100684.50;;;20.14;57.61
20019;BME280;10170;42.502;26.526;2022-10-16T08:23:25;100703.09;;;20.55;55.61
20019;BME280;10170;42.502;26.526;2022-10-16T08:25:53;100708.41;;;20.67;55.86
20019;BME280;10170;42.502;26.526;2022-10-16T08:28:21;100697.13;;;19.69;57.91
20019;BME280;10170;42.502;26.526;2022-10-16T08:30:48;100699.06;;;20.13;57.27
20019;BME280;10170;42.502;26.526;2022-10-16T08:33:15;100699.31;;;20.56;56.20
20019;BME280;10170;42.502;26.526;2022-10-16T08:35:42;100694.44;;;19.69;57.73
20019;BME280;10170;42.502;26.526;2022-10-16T08:38:09;100694.53;;;19.74;58.18
20019;BME280;10170;42.502;26.526;2022-10-16T08:40:36;100693.56;;;19.29;58.10
20019;BME280;10170;42.502;26.526;2022-10-16T08:48:46;100699.81;;;20.53;57.42
20019;BME280;10170;42.502;26.526;2022-10-16T08:51:35;100697.03;;;20.48;56.98
20019;BME280;10170;42.502;26.526;2022-10-16T08:57:17;100712.81;;;20.23;57.54
20019;BME280;10170;42.502;26.526;2022-10-16T08:59:50;100694.06;;;19.37;58.57
20019;BME280;10170;42.502;26.526;2022-10-16T09:05:17;100704.28;;;20.31;59.10
20019;BME280;10170;42.502;26.526;2022-10-16T09:15:50;100715.19;;;20.08;59.06
20019;BME280;10170;42.502;26.526;2022-10-16T09:18:34;100702.44;;;20.81;57.09
20019;BME280;10170;42.502;26.526;2022-10-16T09:21:23;100707.03;;;20.64;55.39
20019;BME280;10170;42.502;26.526;2022-10-16T09:23:52;100713.50;;;20.63;55.99
20019;BME280;10170;42.502;26.526;2022-10-16T09:26:20;100706.19;;;20.47;55.95
20019;BME280;10170;42.502;26.526;2022-10-16T09:28:52;100709.00;;;20.52;56.45
20019;BME280;10170;42.502;26.526;2022-10-16T09:31:21;100707.59;;;19.93;57.26
20019;BME280;10170;42.502;26.526;2022-10-16T09:33:53;100701.88;;;20.63;56.28
20019;BME280;10170;42.502;26.526;2022-10-16T09:36:23;100696.53;;;21.01;56.60
20019;BME280;10170;42.502;26.526;2022-10-16T09:39:02;100676.78;;;19.50;57.02
20019;BME280;10170;42.502;26.526;2022-10-16T09:41:29;100673.13;;;20.24;57.29
20019;BME280;10170;42.502;26.526;2022-10-16T09:43:57;100695.97;;;20.33;56.37
20019;BME280;10170;42.502;26.526;2022-10-16T09:46:29;100698.22;;;20.24;55.85
20019;BME280;10170;42.502;26.526;2022-10-16T09:49:03;100702.09;;;20.94;55.09
20019;BME280;10170;42.502;26.526;2022-10-16T09:51:33;100683.44;;;20.76;54.59
20019;BME280;10170;42.502;26.526;2022-10-16T09:54:13;100706.63;;;20.56;54.61
20019;BME280;10170;42.502;26.526;2022-10-16T09:56:41;100695.53;;;21.24;53.08
20019;BME280;10170;42.502;26.526;2022-10-16T09:59:16;100689.63;;;21.10;53.04
20019;BME280;10170;42.502;26.526;2022-10-16T10:01:46;100685.38;;;21.14;53.33
20019;BME280;10170;42.502;26.526;2022-10-16T10:04:14;100685.94;;;21.54;52.37
20019;BME280;10170;42.502;26.526;2022-10-16T10:06:46;100569.38;;;20.41;51.51
20019;BME280;10170;42.502;26.526;2022-10-16T10:09:26;100687.09;;;21.20;52.63
20019;BME280;10170;42.502;26.526;2022-10-16T10:11:59;100699.09;;;20.58;53.17
20019;BME280;10170;42.502;26.526;2022-10-16T10:14:35;100687.63;;;20.84;52.64
20019;BME280;10170;42.502;26.526;2022-10-16T10:19:54;100677.72;;;21.28;52.02
20019;BME280;10170;42.502;26.526;2022-10-16T10:22:31;100683.06;;;21.44;51.23
20019;BME280;10170;42.502;26.526;2022-10-16T10:30:29;100677.84;;;21.00;50.12
20019;BME280;10170;42.502;26.526;2022-10-16T10:33:12;100672.25;;;21.44;49.31
20019;BME280;10170;42.502;26.526;2022-10-16T10:35:54;100679.06;;;19.69;51.33
20019;BME280;10170;42.502;26.526;2022-10-16T10:39:08;100668.44;;;20.19;50.79
20019;BME280;10170;42.502;26.526;2022-10-16T10:46:50;100678.59;;;20.95;48.37
20019;BME280;10170;42.502;26.526;2022-10-16T10:54:45;100658.59;;;20.79;47.85
20019;BME280;10170;42.502;26.526;2022-10-16T10:57:22;100650.84;;;20.33;49.14
20019;BME280;10170;42.502;26.526;2022-10-16T11:05:56;100651.47;;;19.79;48.58
20019;BME280;10170;42.502;26.526;2022-10-16T11:14:05;100650.03;;;20.49;48.12
20019;BME280;10170;42.502;26.526;2022-10-16T11:19:25;100645.63;;;20.15;49.08
20019;BME280;10170;42.502;26.526;2022-10-16T11:22:00;100625.69;;;20.49;48.37
20019;BME280;10170;42.502;26.526;2022-10-16T11:24:45;100647.19;;;21.32;46.37
20019;BME280;10170;42.502;26.526;2022-10-16T11:27:23;100664.13;;;20.07;48.21
20019;BME280;10170;42.502;26.526;2022-10-16T11:29:58;100671.22;;;19.68;48.50
20019;BME280;10170;42.502;26.526;2022-10-16T11:32:39;100661.25;;;20.13;47.79
20019;BME280;10170;42.502;26.526;2022-10-16T11:35:19;100667.22;;;20.15;47.51
20019;BME280;10170;42.502;26.526;2022-10-16T11:37:50;100653.56;;;20.50;47.72
20019;BME280;10170;42.502;26.526;2022-10-16T11:40:23;100671.25;;;20.74;47.09
20019;BME280;10170;42.502;26.526;2022-10-16T11:43:02;100665.78;;;20.08;47.67
20019;BME280;10170;42.502;26.526;2022-10-16T11:46:03;100665.50;;;20.37;47.36
20019;BME280;10170;42.502;26.526;2022-10-16T11:48:52;100666.66;;;20.13;48.03
20019;BME280;10170;42.502;26.526;2022-10-16T11:51:35;100667.13;;;20.71;46.43
20019;BME280;10170;42.502;26.526;2022-10-16T11:54:27;100668.00;;;21.10;46.77
20019;BME280;10170;42.502;26.526;2022-10-16T11:57:01;100666.03;;;21.44;45.84
20019;BME280;10170;42.502;26.526;2022-10-16T11:59:35;100653.56;;;21.43;44.27
20019;BME280;10170;42.502;26.526;2022-10-16T12:08:11;100652.53;;;20.72;45.56
20019;BME280;10170;42.502;26.526;2022-10-16T12:10:41;100653.88;;;20.37;45.28
20019;BME280;10170;42.502;26.526;2022-10-16T12:13:33;100660.44;;;20.57;45.11
20019;BME280;10170;42.502;26.526;2022-10-16T12:18:43;100647.97;;;20.73;44.88
20019;BME280;10170;42.502;26.526;2022-10-16T12:21:12;100658.50;;;21.08;44.45
20019;BME280;10170;42.502;26.526;2022-10-16T12:23:50;100663.72;;;20.59;45.18
20019;BME280;10170;42.502;26.526;2022-10-16T12:26:25;100674.00;;;20.29;44.90
20019;BME280;10170;42.502;26.526;2022-10-16T12:28:54;100661.25;;;20.41;44.57
20019;BME280;10170;42.502;26.526;2022-10-16T12:31:21;100676.88;;;20.39;44.96
20019;BME280;10170;42.502;26.526;2022-10-16T12:33:58;100678.03;;;20.27;45.62
20019;BME280;10170;42.502;26.526;2022-10-16T12:36:35;100671.72;;;20.71;45.75
20019;BME280;10170;42.502;26.526;2022-10-16T12:39:02;100677.06;;;20.66;44.89
20019;BME280;10170;42.502;26.526;2022-10-16T12:41:31;100688.44;;;20.51;45.35
20019;BME280;10170;42.502;26.526;2022-10-16T12:43:59;100676.09;;;19.82;45.84
20019;BME280;10170;42.502;26.526;2022-10-16T12:51:38;100675.75;;;20.52;44.93
20019;BME280;10170;42.502;26.526;2022-10-16T12:54:15;100679.28;;;20.52;44.16
20019;BME280;10170;42.502;26.526;2022-10-16T13:27:29;100683.16;;;19.32;46.76
20019;BME280;10170;42.502;26.526;2022-10-16T13:30:12;100667.44;;;19.06;46.63
20019;BME280;10170;42.502;26.526;2022-10-16T13:32:40;100678.56;;;19.10;47.08
20019;BME280;10170;42.502;26.526;2022-10-16T13:35:31;100686.53;;;19.28;46.56
20019;BME280;10170;42.502;26.526;2022-10-16T13:40:48;100650.56;;;18.53;46.06
20019;BME280;10170;42.502;26.526;2022-10-16T13:43:18;100687.72;;;18.74;46.31
20019;BME280;10170;42.502;26.526;2022-10-16T13:45:54;100684.22;;;18.85;46.12
20019;BME280;10170;42.502;26.526;2022-10-16T13:48:20;100680.81;;;18.89;46.61
20019;BME280;10170;42.502;26.526;2022-10-16T13:50:58;100682.91;;;18.76;47.08
20019;BME280;10170;42.502;26.526;2022-10-16T13:53:25;100688.44;;;18.81;46.92
20019;BME280;10170;42.502;26.526;2022-10-16T13:55:52;100688.44;;;18.69;46.92
20019;BME280;10170;42.502;26.526;2022-10-16T13:58:18;100690.66;;;18.72;46.87
20019;BME280;10170;42.502;26.526;2022-10-16T14:01:03;100702.13;;;18.56;47.10
20019;BME280;10170;42.502;26.526;2022-10-16T14:03:33;100703.16;;;18.55;47.14
20019;BME280;10170;42.502;26.526;2022-10-16T14:06:03;100685.47;;;18.48;47.02
20019;BME280;10170;42.502;26.526;2022-10-16T14:08:33;100693.91;;;18.51;47.14
20019;BME280;10170;42.502;26.526;2022-10-16T14:11:01;100701.75;;;18.53;46.93
20019;BME280;10170;42.502;26.526;2022-10-16T14:16:00;100701.63;;;18.59;46.80
20019;BME280;10170;42.502;26.526;2022-10-16T14:18:29;100690.75;;;18.54;47.12
20019;BME280;10170;42.502;26.526;2022-10-16T14:21:05;100692.38;;;18.44;46.46
20019;BME280;10170;42.502;26.526;2022-10-16T14:23:37;100707.09;;;18.41;45.97
20019;BME280;10170;42.502;26.526;2022-10-16T14:28:40;100704.31;;;18.07;46.82
20019;BME280;10170;42.502;26.526;2022-10-16T14:31:28;100710.31;;;18.20;46.86
20019;BME280;10170;42.502;26.526;2022-10-16T14:33:56;100711.31;;;18.08;47.02
20019;BME280;10170;42.502;26.526;2022-10-16T14:36:24;100714.72;;;18.15;47.07
20019;BME280;10170;42.502;26.526;2022-10-16T14:39:17;100717.66;;;18.13;47.12
20019;BME280;10170;42.502;26.526;2022-10-16T14:41:48;100729.94;;;18.09;46.93
20019;BME280;10170;42.502;26.526;2022-10-16T14:44:17;100728.97;;;18.04;46.98
20019;BME280;10170;42.502;26.526;2022-10-16T14:46:45;100718.75;;;17.94;47.47
20019;BME280;10170;42.502;26.526;2022-10-16T14:49:16;100722.44;;;17.81;47.01
20019;BME280;10170;42.502;26.526;2022-10-16T14:51:44;100724.53;;;17.79;47.23
20019;BME280;10170;42.502;26.526;2022-10-16T14:54:14;100717.00;;;17.70;47.58
20019;BME280;10170;42.502;26.526;2022-10-16T14:59:24;100727.16;;;17.68;47.99
20019;BME280;10170;42.502;26.526;2022-10-16T15:01:53;100719.16;;;17.61;48.12